sensor_id;sensor_type;location;lat;lon;timestamp;P1;durP1;ratioP1;P2;durP2;ratioP2
16662;SDS011;8445;51.270;9.434;2023-05-10T00:00:11;10.02;;;8.38;;
16662;SDS011;8445;51.270;9.434;2023-05-10T00:02:40;8.43;;;7.57;;
16662;SDS011;8445;51.270;9.434;2023-05-10T00:05:06;7.93;;;7.13;;
16662;SDS011;8445;51.270;9.434;2023-05-10T00:07:32;9.52;;;8.20;;
16662;SDS011;8445;51.270;9.434;2023-05-10T00:09:57;9.55;;;7.72;;
16662;SDS011;8445;51.270;9.434;2023-05-10T00:12:23;10.25;;;9.25;;
16662;SDS011;8445;51.270;9.434;2023-05-10T00:14:48;10.13;;;9.13;;
16662;SDS011;8445;51.270;9.434;2023-05-10T00:17:13;11.30;;;10.07;;
16662;SDS011;8445;51.270;9.434;2023-05-10T00:19:39;10.70;;;9.27;;
16662;SDS011;8445;51.270;9.434;2023-05-10T00:22:04;10.68;;;9.45;;
16662;SDS011;8445;51.270;9.434;2023-05-10T00:24:30;11.32;;;10.32;;
16662;SDS011;8445;51.270;9.434;2023-05-10T00:26:55;10.80;;;9.70;;
16662;SDS011;8445;51.270;9.434;2023-05-10T00:29:21;11.90;;;10.77;;
16662;SDS011;8445;51.270;9.434;2023-05-10T00:31:46;11.00;;;9.32;;
16662;SDS011;8445;51.270;9.434;2023-05-10T00:34:12;12.25;;;10.82;;
16662;SDS011;8445;51.270;9.434;2023-05-10T00:36:37;12.40;;;10.35;;
16662;SDS011;8445;51.270;9.434;2023-05-10T00:39:03;12.20;;;10.45;;
16662;SDS011;8445;51.270;9.434;2023-05-10T00:41:28;12.70;;;11.35;;
16662;SDS011;8445;51.270;9.434;2023-05-10T00:43:57;14.57;;;11.27;;
16662;SDS011;8445;51.270;9.434;2023-05-10T00:46:23;13.15;;;11.85;;
16662;SDS011;8445;51.270;9.434;2023-05-10T00:48:49;13.93;;;12.15;;
16662;SDS011;8445;51.270;9.434;2023-05-10T00:51:14;13.50;;;12.07;;
16662;SDS011;8445;51.270;9.434;2023-05-10T00:53:40;13.60;;;12.13;;
16662;SDS011;8445;51.270;9.434;2023-05-10T00:56:06;15.73;;;12.48;;
16662;SDS011;8445;51.270;9.434;2023-05-10T00:58:31;14.15;;;12.48;;
16662;SDS011;8445;51.270;9.434;2023-05-10T01:00:57;14.90;;;13.02;;
16662;SDS011;8445;51.270;9.434;2023-05-10T01:03:23;14.98;;;13.40;;
16662;SDS011;8445;51.270;9.434;2023-05-10T01:05:49;14.70;;;13.20;;
16662;SDS011;8445;51.270;9.434;2023-05-10T01:15:15;14.40;;;11.98;;
16662;SDS011;8445;51.270;9.434;2023-05-10T01:17:44;13.82;;;12.43;;
16662;SDS011;8445;51.270;9.434;2023-05-10T01:20:11;12.73;;;11.40;;
16662;SDS011;8445;51.270;9.434;2023-05-10T01:28:28;14.50;;;11.05;;
16662;SDS011;8445;51.270;9.434;2023-05-10T01:33:54;11.40;;;10.20;;
16662;SDS011;8445;51.270;9.434;2023-05-10T01:41:41;10.57;;;8.70;;
16662;SDS011;8445;51.270;9.434;2023-05-10T01:44:20;10.27;;;9.27;;
16662;SDS011;8445;51.270;9.434;2023-05-10T01:46:58;9.70;;;8.70;;
16662;SDS011;8445;51.270;9.434;2023-05-10T01:49:32;9.73;;;8.57;;
16662;SDS011;8445;51.270;9.434;2023-05-10T01:52:09;10.27;;;8.70;;
16662;SDS011;8445;51.270;9.434;2023-05-10T01:54:44;10.10;;;9.00;;
16662;SDS011;8445;51.270;9.434;2023-05-10T01:57:20;10.30;;;8.55;;
16662;SDS011;8445;51.270;9.434;2023-05-10T01:59:50;9.40;;;8.20;;
16662;SDS011;8445;51.270;9.434;2023-05-10T02:02:18;10.10;;;8.68;;
16662;SDS011;8445;51.270;9.434;2023-05-10T02:04:46;9.18;;;8.00;;
16662;SDS011;8445;51.270;9.434;2023-05-10T02:07:12;12.55;;;8.18;;
16662;SDS011;8445;51.270;9.434;2023-05-10T02:09:39;10.38;;;7.63;;
16662;SDS011;8445;51.270;9.434;2023-05-10T02:12:07;13.35;;;9.02;;
16662;SDS011;8445;51.270;9.434;2023-05-10T02:14:35;9.90;;;8.20;;
16662;SDS011;8445;51.270;9.434;2023-05-10T02:17:02;8.98;;;8.07;;
16662;SDS011;8445;51.270;9.434;2023-05-10T02:19:30;9.30;;;8.10;;
16662;SDS011;8445;51.270;9.434;2023-05-10T02:21:57;9.35;;;7.88;;
16662;SDS011;8445;51.270;9.434;2023-05-10T02:24:25;11.75;;;7.60;;
16662;SDS011;8445;51.270;9.434;2023-05-10T02:26:53;12.07;;;7.90;;
16662;SDS011;8445;51.270;9.434;2023-05-10T02:29:20;9.63;;;7.15;;
16662;SDS011;8445;51.270;9.434;2023-05-10T02:31:48;9.55;;;7.47;;
16662;SDS011;8445;51.270;9.434;2023-05-10T02:34:16;13.13;;;7.10;;
16662;SDS011;8445;51.270;9.434;2023-05-10T02:36:43;7.82;;;7.03;;
16662;SDS011;8445;51.270;9.434;2023-05-10T02:39:09;10.65;;;8.25;;
16662;SDS011;8445;51.270;9.434;2023-05-10T02:41:37;16.00;;;9.68;;
16662;SDS011;8445;51.270;9.434;2023-05-10T02:44:06;15.55;;;9.88;;
16662;SDS011;8445;51.270;9.434;2023-05-10T02:46:34;13.73;;;8.48;;
16662;SDS011;8445;51.270;9.434;2023-05-10T02:49:00;10.93;;;7.75;;
16662;SDS011;8445;51.270;9.434;2023-05-10T02:51:28;12.90;;;7.97;;
16662;SDS011;8445;51.270;9.434;2023-05-10T02:54:01;9.63;;;7.78;;
16662;SDS011;8445;51.270;9.434;2023-05-10T02:57:07;8.45;;;6.80;;
16662;SDS011;8445;51.270;9.434;2023-05-10T02:59:39;4.32;;;3.92;;
16662;SDS011;8445;51.270;9.434;2023-05-10T03:02:05;5.28;;;3.47;;
16662;SDS011;8445;51.270;9.434;2023-05-10T03:04:31;4.70;;;3.03;;
16662;SDS011;8445;51.270;9.434;2023-05-10T03:06:57;3.83;;;2.92;;
16662;SDS011;8445;51.270;9.434;2023-05-10T03:09:23;2.35;;;2.15;;
16662;SDS011;8445;51.270;9.434;2023-05-10T03:17:30;1.48;;;1.38;;
16662;SDS011;8445;51.270;9.434;2023-05-10T03:20:09;1.10;;;1.00;;
16662;SDS011;8445;51.270;9.434;2023-05-10T03:22:38;1.80;;;1.33;;
16662;SDS011;8445;51.270;9.434;2023-05-10T03:25:10;2.33;;;1.30;;
16662;SDS011;8445;51.270;9.434;2023-05-10T03:27:39;2.40;;;1.00;;
16662;SDS011;8445;51.270;9.434;2023-05-10T03:30:10;1.80;;;1.42;;
16662;SDS011;8445;51.270;9.434;2023-05-10T03:32:37;1.50;;;1.40;;
16662;SDS011;8445;51.270;9.434;2023-05-10T03:35:09;1.30;;;1.20;;
16662;SDS011;8445;51.270;9.434;2023-05-10T03:37:37;1.20;;;1.20;;
16662;SDS011;8445;51.270;9.434;2023-05-10T03:40:02;1.10;;;1.10;;
16662;SDS011;8445;51.270;9.434;2023-05-10T03:42:31;1.40;;;1.30;;
16662;SDS011;8445;51.270;9.434;2023-05-10T03:44:57;1.55;;;1.40;;
16662;SDS011;8445;51.270;9.434;2023-05-10T03:47:23;1.10;;;1.10;;
16662;SDS011;8445;51.270;9.434;2023-05-10T03:49:48;1.35;;;1.33;;
16662;SDS011;8445;51.270;9.434;2023-05-10T03:52:14;1.50;;;1.20;;
16662;SDS011;8445;51.270;9.434;2023-05-10T03:54:39;3.35;;;1.20;;
16662;SDS011;8445;51.270;9.434;2023-05-10T03:57:05;1.38;;;1.27;;
16662;SDS011;8445;51.270;9.434;2023-05-10T03:59:31;1.05;;;1.05;;
16662;SDS011;8445;51.270;9.434;2023-05-10T04:01:56;1.00;;;1.00;;
16662;SDS011;8445;51.270;9.434;2023-05-10T04:04:22;0.90;;;0.90;;
16662;SDS011;8445;51.270;9.434;2023-05-10T04:06:48;1.40;;;1.30;;
16662;SDS011;8445;51.270;9.434;2023-05-10T04:09:14;1.17;;;1.00;;
16662;SDS011;8445;51.270;9.434;2023-05-10T04:11:40;1.13;;;1.00;;
16662;SDS011;8445;51.270;9.434;2023-05-10T04:14:05;1.17;;;1.10;;
16662;SDS011;8445;51.270;9.434;2023-05-10T04:16:31;1.30;;;1.20;;
16662;SDS011;8445;51.270;9.434;2023-05-10T04:18:56;1.88;;;1.40;;
16662;SDS011;8445;51.270;9.434;2023-05-10T04:21:22;1.60;;;1.50;;
16662;SDS011;8445;51.270;9.434;2023-05-10T04:23:47;1.80;;;1.70;;
16662;SDS011;8445;51.270;9.434;2023-05-10T04:26:13;2.55;;;1.60;;
16662;SDS011;8445;51.270;9.434;2023-05-10T04:28:38;1.83;;;1.40;;
16662;SDS011;8445;51.270;9.434;2023-05-10T04:31:04;3.30;;;1.70;;
16662;SDS011;8445;51.270;9.434;2023-05-10T04:33:31;3.97;;;2.03;;
16662;SDS011;8445;51.270;9.434;2023-05-10T04:35:57;2.72;;;1.52;;
16662;SDS011;8445;51.270;9.434;2023-05-10T04:38:22;3.15;;;1.30;;
16662;SDS011;8445;51.270;9.434;2023-05-10T04:40:48;2.28;;;1.13;;
16662;SDS011;8445;51.270;9.434;2023-05-10T04:43:13;1.38;;;0.90;;
16662;SDS011;8445;51.270;9.434;2023-05-10T04:45:39;0.80;;;0.80;;
16662;SDS011;8445;51.270;9.434;2023-05-10T04:48:04;1.02;;;0.90;;
16662;SDS011;8445;51.270;9.434;2023-05-10T04:50:30;1.38;;;1.00;;
16662;SDS011;8445;51.270;9.434;2023-05-10T04:52:55;1.10;;;0.70;;
16662;SDS011;8445;51.270;9.434;2023-05-10T04:55:21;0.77;;;0.77;;
16662;SDS011;8445;51.270;9.434;2023-05-10T04:57:50;1.75;;;0.88;;
16662;SDS011;8445;51.270;9.434;2023-05-10T05:00:15;1.33;;;0.98;;
16662;SDS011;8445;51.270;9.434;2023-05-10T05:02:42;0.68;;;0.68;;
16662;SDS011;8445;51.270;9.434;2023-05-10T05:05:09;0.85;;;0.80;;
16662;SDS011;8445;51.270;9.434;2023-05-10T05:07:34;0.50;;;0.50;;
16662;SDS011;8445;51.270;9.434;2023-05-10T05:10:00;0.98;;;0.57;;
16662;SDS011;8445;51.270;9.434;2023-05-10T05:12:25;1.50;;;0.70;;
16662;SDS011;8445;51.270;9.434;2023-05-10T05:14:51;0.70;;;0.70;;
16662;SDS011;8445;51.270;9.434;2023-05-10T05:17:16;1.63;;;1.05;;
16662;SDS011;8445;51.270;9.434;2023-05-10T05:19:42;4.55;;;0.98;;
16662;SDS011;8445;51.270;9.434;2023-05-10T05:22:07;3.10;;;1.30;;
16662;SDS011;8445;51.270;9.434;2023-05-10T05:24:36;1.85;;;1.15;;
16662;SDS011;8445;51.270;9.434;2023-05-10T05:27:04;2.95;;;1.30;;
16662;SDS011;8445;51.270;9.434;2023-05-10T05:29:31;3.92;;;1.38;;
16662;SDS011;8445;51.270;9.434;2023-05-10T05:31:56;3.03;;;1.38;;
16662;SDS011;8445;51.270;9.434;2023-05-10T05:34:22;1.98;;;1.30;;
16662;SDS011;8445;51.270;9.434;2023-05-10T05:36:47;2.38;;;1.30;;
16662;SDS011;8445;51.270;9.434;2023-05-10T05:39:13;2.20;;;1.33;;
16662;SDS011;8445;51.270;9.434;2023-05-10T05:41:38;1.42;;;1.30;;
16662;SDS011;8445;51.270;9.434;2023-05-10T05:44:04;1.92;;;1.00;;
16662;SDS011;8445;51.270;9.434;2023-05-10T05:46:29;1.60;;;1.10;;
16662;SDS011;8445;51.270;9.434;2023-05-10T05:48:55;1.63;;;0.95;;
16662;SDS011;8445;51.270;9.434;2023-05-10T05:51:20;0.85;;;0.85;;
16662;SDS011;8445;51.270;9.434;2023-05-10T05:53:46;1.85;;;0.85;;
16662;SDS011;8445;51.270;9.434;2023-05-10T05:56:11;2.30;;;1.20;;
16662;SDS011;8445;51.270;9.434;2023-05-10T05:58:37;2.35;;;1.00;;
16662;SDS011;8445;51.270;9.434;2023-05-10T06:01:02;2.25;;;1.10;;
16662;SDS011;8445;51.270;9.434;2023-05-10T06:03:28;0.90;;;0.75;;
16662;SDS011;8445;51.270;9.434;2023-05-10T06:05:53;1.75;;;0.63;;
16662;SDS011;8445;51.270;9.434;2023-05-10T06:08:19;1.30;;;1.00;;
16662;SDS011;8445;51.270;9.434;2023-05-10T06:10:45;1.67;;;0.80;;
16662;SDS011;8445;51.270;9.434;2023-05-10T06:13:10;1.65;;;0.80;;
16662;SDS011;8445;51.270;9.434;2023-05-10T06:15:36;1.02;;;0.80;;
16662;SDS011;8445;51.270;9.434;2023-05-10T06:18:02;0.70;;;0.70;;
16662;SDS011;8445;51.270;9.434;2023-05-10T06:20:30;0.73;;;0.73;;
16662;SDS011;8445;51.270;9.434;2023-05-10T06:22:58;1.35;;;0.70;;
16662;SDS011;8445;51.270;9.434;2023-05-10T06:25:24;1.13;;;0.82;;
16662;SDS011;8445;51.270;9.434;2023-05-10T06:27:50;1.05;;;0.95;;
16662;SDS011;8445;51.270;9.434;2023-05-10T06:30:15;1.13;;;1.02;;
16662;SDS011;8445;51.270;9.434;2023-05-10T06:32:41;2.30;;;0.90;;
16662;SDS011;8445;51.270;9.434;2023-05-10T06:35:08;3.33;;;0.93;;
16662;SDS011;8445;51.270;9.434;2023-05-10T06:37:34;2.22;;;0.90;;
16662;SDS011;8445;51.270;9.434;2023-05-10T06:39:59;0.90;;;0.90;;
16662;SDS011;8445;51.270;9.434;2023-05-10T06:42:25;3.00;;;0.80;;
16662;SDS011;8445;51.270;9.434;2023-05-10T06:44:52;0.90;;;0.90;;
16662;SDS011;8445;51.270;9.434;2023-05-10T06:47:18;2.90;;;0.80;;
16662;SDS011;8445;51.270;9.434;2023-05-10T06:49:43;0.70;;;0.70;;
16662;SDS011;8445;51.270;9.434;2023-05-10T06:52:09;2.50;;;0.90;;
16662;SDS011;8445;51.270;9.434;2023-05-10T06:54:34;0.90;;;0.80;;
16662;SDS011;8445;51.270;9.434;2023-05-10T06:57:00;1.00;;;1.00;;
16662;SDS011;8445;51.270;9.434;2023-05-10T06:59:25;1.23;;;0.85;;
16662;SDS011;8445;51.270;9.434;2023-05-10T07:01:51;2.70;;;0.80;;
16662;SDS011;8445;51.270;9.434;2023-05-10T07:04:16;0.80;;;0.80;;
16662;SDS011;8445;51.270;9.434;2023-05-10T07:06:42;1.13;;;1.02;;
16662;SDS011;8445;51.270;9.434;2023-05-10T07:09:08;0.85;;;0.80;;
16662;SDS011;8445;51.270;9.434;2023-05-10T07:11:34;1.13;;;0.70;;
16662;SDS011;8445;51.270;9.434;2023-05-10T07:13:59;0.70;;;0.70;;
16662;SDS011;8445;51.270;9.434;2023-05-10T07:16:25;0.90;;;0.63;;
16662;SDS011;8445;51.270;9.434;2023-05-10T07:18:50;0.43;;;0.40;;
16662;SDS011;8445;51.270;9.434;2023-05-10T07:21:15;0.60;;;0.60;;
16662;SDS011;8445;51.270;9.434;2023-05-10T07:23:41;1.60;;;0.60;;
16662;SDS011;8445;51.270;9.434;2023-05-10T07:26:06;1.63;;;0.68;;
16662;SDS011;8445;51.270;9.434;2023-05-10T07:28:32;1.27;;;0.57;;
16662;SDS011;8445;51.270;9.434;2023-05-10T07:30:58;2.22;;;0.68;;
16662;SDS011;8445;51.270;9.434;2023-05-10T07:33:23;0.80;;;0.80;;
16662;SDS011;8445;51.270;9.434;2023-05-10T07:35:49;0.60;;;0.60;;
16662;SDS011;8445;51.270;9.434;2023-05-10T07:38:15;0.57;;;0.47;;
16662;SDS011;8445;51.270;9.434;2023-05-10T07:40:40;0.57;;;0.55;;
16662;SDS011;8445;51.270;9.434;2023-05-10T07:43:06;0.60;;;0.52;;
16662;SDS011;8445;51.270;9.434;2023-05-10T07:45:31;1.27;;;0.70;;
16662;SDS011;8445;51.270;9.434;2023-05-10T07:47:57;0.52;;;0.40;;
16662;SDS011;8445;51.270;9.434;2023-05-10T07:50:23;0.60;;;0.60;;
16662;SDS011;8445;51.270;9.434;2023-05-10T07:52:48;0.50;;;0.50;;
16662;SDS011;8445;51.270;9.434;2023-05-10T07:55:14;1.05;;;0.95;;
16662;SDS011;8445;51.270;9.434;2023-05-10T07:57:39;0.90;;;0.60;;
16662;SDS011;8445;51.270;9.434;2023-05-10T08:00:05;1.27;;;0.68;;
16662;SDS011;8445;51.270;9.434;2023-05-10T08:02:38;2.42;;;0.50;;
16662;SDS011;8445;51.270;9.434;2023-05-10T08:05:04;0.98;;;0.88;;
16662;SDS011;8445;51.270;9.434;2023-05-10T08:07:30;2.35;;;0.68;;
16662;SDS011;8445;51.270;9.434;2023-05-10T08:09:55;1.55;;;0.65;;
16662;SDS011;8445;51.270;9.434;2023-05-10T08:12:21;0.77;;;0.70;;
16662;SDS011;8445;51.270;9.434;2023-05-10T08:14:46;0.57;;;0.57;;
16662;SDS011;8445;51.270;9.434;2023-05-10T08:17:12;0.75;;;0.75;;
16662;SDS011;8445;51.270;9.434;2023-05-10T08:19:37;1.88;;;0.75;;
16662;SDS011;8445;51.270;9.434;2023-05-10T08:22:03;1.25;;;0.80;;
16662;SDS011;8445;51.270;9.434;2023-05-10T08:24:28;0.60;;;0.60;;
16662;SDS011;8445;51.270;9.434;2023-05-10T08:26:53;0.68;;;0.60;;
16662;SDS011;8445;51.270;9.434;2023-05-10T08:29:19;0.70;;;0.65;;
16662;SDS011;8445;51.270;9.434;2023-05-10T08:31:44;2.33;;;0.90;;
16662;SDS011;8445;51.270;9.434;2023-05-10T08:34:10;2.30;;;0.57;;
16662;SDS011;8445;51.270;9.434;2023-05-10T08:36:35;1.10;;;1.00;;
16662;SDS011;8445;51.270;9.434;2023-05-10T08:39:01;1.13;;;0.90;;
16662;SDS011;8445;51.270;9.434;2023-05-10T08:41:27;0.73;;;0.73;;
16662;SDS011;8445;51.270;9.434;2023-05-10T08:43:53;1.42;;;0.82;;
16662;SDS011;8445;51.270;9.434;2023-05-10T08:46:19;1.15;;;0.80;;
16662;SDS011;8445;51.270;9.434;2023-05-10T08:48:47;0.80;;;0.80;;
16662;SDS011;8445;51.270;9.434;2023-05-10T08:51:14;1.30;;;1.17;;
16662;SDS011;8445;51.270;9.434;2023-05-10T08:53:45;1.13;;;0.80;;
16662;SDS011;8445;51.270;9.434;2023-05-10T08:56:11;1.10;;;0.80;;
16662;SDS011;8445;51.270;9.434;2023-05-10T08:58:37;2.10;;;0.70;;
16662;SDS011;8445;51.270;9.434;2023-05-10T09:01:03;0.70;;;0.70;;
16662;SDS011;8445;51.270;9.434;2023-05-10T09:03:30;1.10;;;0.75;;
16662;SDS011;8445;51.270;9.434;2023-05-10T09:05:56;2.42;;;0.90;;
16662;SDS011;8445;51.270;9.434;2023-05-10T09:08:25;1.00;;;0.90;;
16662;SDS011;8445;51.270;9.434;2023-05-10T09:10:52;3.35;;;1.10;;
16662;SDS011;8445;51.270;9.434;2023-05-10T09:13:18;1.15;;;1.00;;
16662;SDS011;8445;51.270;9.434;2023-05-10T09:15:44;0.77;;;0.75;;
16662;SDS011;8445;51.270;9.434;2023-05-10T09:18:11;1.23;;;1.08;;
16662;SDS011;8445;51.270;9.434;2023-05-10T09:20:37;1.10;;;0.93;;
16662;SDS011;8445;51.270;9.434;2023-05-10T09:23:02;1.90;;;1.00;;
16662;SDS011;8445;51.270;9.434;2023-05-10T09:25:28;4.75;;;1.15;;
16662;SDS011;8445;51.270;9.434;2023-05-10T09:27:58;3.90;;;1.13;;
16662;SDS011;8445;51.270;9.434;2023-05-10T09:30:24;1.58;;;1.35;;
16662;SDS011;8445;51.270;9.434;2023-05-10T09:32:52;2.15;;;1.02;;
16662;SDS011;8445;51.270;9.434;2023-05-10T09:35:22;1.35;;;1.23;;
16662;SDS011;8445;51.270;9.434;2023-05-10T09:37:49;5.80;;;1.65;;
16662;SDS011;8445;51.270;9.434;2023-05-10T09:40:17;1.73;;;1.27;;
16662;SDS011;8445;51.270;9.434;2023-05-10T09:42:54;2.47;;;1.10;;
16662;SDS011;8445;51.270;9.434;2023-05-10T09:45:20;3.08;;;1.40;;
16662;SDS011;8445;51.270;9.434;2023-05-10T09:47:47;1.13;;;1.02;;
16662;SDS011;8445;51.270;9.434;2023-05-10T09:50:13;1.25;;;1.10;;
16662;SDS011;8445;51.270;9.434;2023-05-10T09:52:54;2.78;;;1.13;;
16662;SDS011;8445;51.270;9.434;2023-05-10T09:55:24;1.30;;;1.20;;
16662;SDS011;8445;51.270;9.434;2023-05-10T09:58:10;1.42;;;1.05;;
16662;SDS011;8445;51.270;9.434;2023-05-10T10:00:38;3.70;;;1.40;;
16662;SDS011;8445;51.270;9.434;2023-05-10T10:03:13;2.38;;;1.30;;
16662;SDS011;8445;51.270;9.434;2023-05-10T10:05:40;2.53;;;1.10;;
16662;SDS011;8445;51.270;9.434;2023-05-10T10:08:10;2.85;;;1.58;;
16662;SDS011;8445;51.270;9.434;2023-05-10T10:10:37;2.13;;;1.58;;
16662;SDS011;8445;51.270;9.434;2023-05-10T10:13:03;2.55;;;1.67;;
16662;SDS011;8445;51.270;9.434;2023-05-10T10:15:29;4.25;;;1.98;;
16662;SDS011;8445;51.270;9.434;2023-05-10T10:17:55;2.47;;;1.45;;
16662;SDS011;8445;51.270;9.434;2023-05-10T10:20:21;2.10;;;1.90;;
16662;SDS011;8445;51.270;9.434;2023-05-10T10:22:47;3.38;;;1.98;;
16662;SDS011;8445;51.270;9.434;2023-05-10T10:25:17;2.97;;;2.28;;
16662;SDS011;8445;51.270;9.434;2023-05-10T10:30:39;2.97;;;2.42;;
16662;SDS011;8445;51.270;9.434;2023-05-10T10:33:13;2.22;;;2.00;;
16662;SDS011;8445;51.270;9.434;2023-05-10T10:35:43;3.55;;;2.47;;
16662;SDS011;8445;51.270;9.434;2023-05-10T10:38:12;2.55;;;2.38;;
16662;SDS011;8445;51.270;9.434;2023-05-10T10:40:38;2.53;;;2.33;;
16662;SDS011;8445;51.270;9.434;2023-05-10T10:46:09;2.45;;;2.20;;
16662;SDS011;8445;51.270;9.434;2023-05-10T10:48:39;2.78;;;2.58;;
16662;SDS011;8445;51.270;9.434;2023-05-10T10:51:06;3.33;;;2.38;;
16662;SDS011;8445;51.270;9.434;2023-05-10T10:53:31;2.53;;;2.33;;
16662;SDS011;8445;51.270;9.434;2023-05-10T10:56:18;3.50;;;2.17;;
16662;SDS011;8445;51.270;9.434;2023-05-10T10:58:49;2.50;;;2.30;;
16662;SDS011;8445;51.270;9.434;2023-05-10T11:01:18;2.40;;;2.20;;
16662;SDS011;8445;51.270;9.434;2023-05-10T11:06:28;2.70;;;2.50;;
16662;SDS011;8445;51.270;9.434;2023-05-10T11:08:57;6.07;;;2.60;;
16662;SDS011;8445;51.270;9.434;2023-05-10T11:11:26;2.50;;;2.30;;
16662;SDS011;8445;51.270;9.434;2023-05-10T11:13:54;2.75;;;2.45;;
16662;SDS011;8445;51.270;9.434;2023-05-10T11:16:42;2.95;;;2.45;;
16662;SDS011;8445;51.270;9.434;2023-05-10T11:19:13;2.83;;;2.58;;
16662;SDS011;8445;51.270;9.434;2023-05-10T11:21:45;3.33;;;2.63;;
16662;SDS011;8445;51.270;9.434;2023-05-10T11:24:19;4.28;;;3.00;;
16662;SDS011;8445;51.270;9.434;2023-05-10T11:26:48;3.63;;;2.80;;
16662;SDS011;8445;51.270;9.434;2023-05-10T11:29:15;3.05;;;2.72;;
16662;SDS011;8445;51.270;9.434;2023-05-10T11:31:44;3.22;;;2.92;;
16662;SDS011;8445;51.270;9.434;2023-05-10T11:34:28;3.47;;;3.00;;
16662;SDS011;8445;51.270;9.434;2023-05-10T11:37:00;3.22;;;2.60;;
16662;SDS011;8445;51.270;9.434;2023-05-10T11:39:29;3.47;;;2.80;;
16662;SDS011;8445;51.270;9.434;2023-05-10T11:41:58;2.97;;;2.58;;
16662;SDS011;8445;51.270;9.434;2023-05-10T11:44:30;3.45;;;2.95;;
16662;SDS011;8445;51.270;9.434;2023-05-10T11:47:02;5.10;;;2.60;;
16662;SDS011;8445;51.270;9.434;2023-05-10T11:49:31;3.67;;;3.10;;
16662;SDS011;8445;51.270;9.434;2023-05-10T11:52:07;4.30;;;2.60;;
16662;SDS011;8445;51.270;9.434;2023-05-10T11:54:37;4.53;;;3.00;;
16662;SDS011;8445;51.270;9.434;2023-05-10T11:57:12;7.18;;;3.38;;
16662;SDS011;8445;51.270;9.434;2023-05-10T11:59:40;3.15;;;2.80;;
16662;SDS011;8445;51.270;9.434;2023-05-10T12:02:10;4.15;;;3.20;;
16662;SDS011;8445;51.270;9.434;2023-05-10T12:04:39;4.95;;;3.15;;
16662;SDS011;8445;51.270;9.434;2023-05-10T12:07:05;5.53;;;3.05;;
16662;SDS011;8445;51.270;9.434;2023-05-10T12:09:30;3.80;;;2.90;;
16662;SDS011;8445;51.270;9.434;2023-05-10T12:11:56;3.45;;;2.78;;
16662;SDS011;8445;51.270;9.434;2023-05-10T12:14:24;4.60;;;2.80;;
16662;SDS011;8445;51.270;9.434;2023-05-10T12:16:50;3.90;;;3.33;;
16662;SDS011;8445;51.270;9.434;2023-05-10T12:19:19;6.30;;;3.38;;
16662;SDS011;8445;51.270;9.434;2023-05-10T12:21:47;5.38;;;3.78;;
16662;SDS011;8445;51.270;9.434;2023-05-10T12:24:13;7.72;;;3.50;;
16662;SDS011;8445;51.270;9.434;2023-05-10T12:26:47;4.18;;;2.80;;
16662;SDS011;8445;51.270;9.434;2023-05-10T12:29:16;2.83;;;2.47;;
16662;SDS011;8445;51.270;9.434;2023-05-10T12:31:56;2.33;;;2.13;;
16662;SDS011;8445;51.270;9.434;2023-05-10T12:34:30;3.15;;;2.38;;
16662;SDS011;8445;51.270;9.434;2023-05-10T12:37:13;2.60;;;2.38;;
16662;SDS011;8445;51.270;9.434;2023-05-10T12:39:41;4.40;;;2.88;;
16662;SDS011;8445;51.270;9.434;2023-05-10T12:42:09;4.05;;;2.35;;
16662;SDS011;8445;51.270;9.434;2023-05-10T12:44:35;4.07;;;2.63;;
16662;SDS011;8445;51.270;9.434;2023-05-10T12:47:01;3.40;;;2.50;;
16662;SDS011;8445;51.270;9.434;2023-05-10T12:49:31;4.93;;;2.75;;
16662;SDS011;8445;51.270;9.434;2023-05-10T12:51:57;5.30;;;3.28;;
16662;SDS011;8445;51.270;9.434;2023-05-10T12:54:23;5.10;;;3.03;;
16662;SDS011;8445;51.270;9.434;2023-05-10T12:56:52;4.22;;;2.60;;
16662;SDS011;8445;51.270;9.434;2023-05-10T12:59:21;6.93;;;3.22;;
16662;SDS011;8445;51.270;9.434;2023-05-10T13:01:49;5.15;;;3.08;;
16662;SDS011;8445;51.270;9.434;2023-05-10T13:04:16;5.03;;;3.20;;
16662;SDS011;8445;51.270;9.434;2023-05-10T13:06:49;3.30;;;2.88;;
16662;SDS011;8445;51.270;9.434;2023-05-10T13:09:17;6.68;;;3.05;;
16662;SDS011;8445;51.270;9.434;2023-05-10T13:11:43;4.15;;;2.90;;
16662;SDS011;8445;51.270;9.434;2023-05-10T13:14:10;4.90;;;2.33;;
16662;SDS011;8445;51.270;9.434;2023-05-10T13:16:35;2.70;;;2.50;;
16662;SDS011;8445;51.270;9.434;2023-05-10T13:19:01;4.00;;;2.38;;
16662;SDS011;8445;51.270;9.434;2023-05-10T13:21:26;4.15;;;3.17;;
16662;SDS011;8445;51.270;9.434;2023-05-10T13:23:52;4.50;;;2.85;;
16662;SDS011;8445;51.270;9.434;2023-05-10T13:26:18;3.72;;;2.47;;
16662;SDS011;8445;51.270;9.434;2023-05-10T13:28:44;2.60;;;2.40;;
16662;SDS011;8445;51.270;9.434;2023-05-10T13:31:10;2.80;;;2.45;;
16662;SDS011;8445;51.270;9.434;2023-05-10T13:33:36;2.72;;;2.53;;
16662;SDS011;8445;51.270;9.434;2023-05-10T13:36:01;3.10;;;2.80;;
16662;SDS011;8445;51.270;9.434;2023-05-10T13:38:27;6.63;;;2.53;;
16662;SDS011;8445;51.270;9.434;2023-05-10T13:40:52;2.30;;;2.20;;
16662;SDS011;8445;51.270;9.434;2023-05-10T13:43:18;2.63;;;2.42;;
16662;SDS011;8445;51.270;9.434;2023-05-10T13:45:44;2.75;;;2.55;;
16662;SDS011;8445;51.270;9.434;2023-05-10T13:48:09;4.38;;;2.58;;
16662;SDS011;8445;51.270;9.434;2023-05-10T13:50:35;5.25;;;2.60;;
16662;SDS011;8445;51.270;9.434;2023-05-10T13:53:00;2.20;;;2.00;;
16662;SDS011;8445;51.270;9.434;2023-05-10T13:55:26;2.33;;;2.22;;
16662;SDS011;8445;51.270;9.434;2023-05-10T13:57:52;2.20;;;2.00;;
16662;SDS011;8445;51.270;9.434;2023-05-10T14:00:17;2.25;;;2.05;;
16662;SDS011;8445;51.270;9.434;2023-05-10T14:02:43;3.85;;;1.80;;
16662;SDS011;8445;51.270;9.434;2023-05-10T14:05:08;2.25;;;1.77;;
16662;SDS011;8445;51.270;9.434;2023-05-10T14:07:34;2.50;;;1.70;;
16662;SDS011;8445;51.270;9.434;2023-05-10T14:10:03;2.28;;;1.73;;
16662;SDS011;8445;51.270;9.434;2023-05-10T14:12:29;2.08;;;1.52;;
16662;SDS011;8445;51.270;9.434;2023-05-10T14:14:54;1.60;;;1.50;;
16662;SDS011;8445;51.270;9.434;2023-05-10T14:17:20;1.33;;;1.17;;
16662;SDS011;8445;51.270;9.434;2023-05-10T14:19:45;1.20;;;1.15;;
16662;SDS011;8445;51.270;9.434;2023-05-10T14:22:11;1.27;;;1.10;;
16662;SDS011;8445;51.270;9.434;2023-05-10T14:24:37;1.60;;;1.50;;
16662;SDS011;8445;51.270;9.434;2023-05-10T14:27:03;2.75;;;1.40;;
16662;SDS011;8445;51.270;9.434;2023-05-10T14:29:28;1.85;;;1.50;;
16662;SDS011;8445;51.270;9.434;2023-05-10T14:31:54;2.35;;;1.90;;
16662;SDS011;8445;51.270;9.434;2023-05-10T14:34:19;2.10;;;2.00;;
16662;SDS011;8445;51.270;9.434;2023-05-10T14:36:45;4.05;;;2.75;;
16662;SDS011;8445;51.270;9.434;2023-05-10T14:39:10;3.40;;;2.35;;
16662;SDS011;8445;51.270;9.434;2023-05-10T14:41:37;4.15;;;2.10;;
16662;SDS011;8445;51.270;9.434;2023-05-10T14:44:05;3.35;;;1.42;;
16662;SDS011;8445;51.270;9.434;2023-05-10T14:46:31;2.20;;;1.85;;
16662;SDS011;8445;51.270;9.434;2023-05-10T14:48:57;3.80;;;2.22;;
16662;SDS011;8445;51.270;9.434;2023-05-10T14:51:22;2.33;;;2.10;;
16662;SDS011;8445;51.270;9.434;2023-05-10T14:53:48;3.42;;;2.55;;
16662;SDS011;8445;51.270;9.434;2023-05-10T14:56:16;2.40;;;2.20;;
16662;SDS011;8445;51.270;9.434;2023-05-10T14:58:42;5.70;;;2.83;;
16662;SDS011;8445;51.270;9.434;2023-05-10T15:01:07;4.22;;;2.85;;
16662;SDS011;8445;51.270;9.434;2023-05-10T15:03:32;3.25;;;2.80;;
16662;SDS011;8445;51.270;9.434;2023-05-10T15:05:58;4.93;;;3.00;;
16662;SDS011;8445;51.270;9.434;2023-05-10T15:08:23;3.08;;;2.53;;
16662;SDS011;8445;51.270;9.434;2023-05-10T15:10:49;5.57;;;2.65;;
16662;SDS011;8445;51.270;9.434;2023-05-10T15:13:15;5.30;;;2.72;;
16662;SDS011;8445;51.270;9.434;2023-05-10T15:15:41;4.05;;;2.83;;
16662;SDS011;8445;51.270;9.434;2023-05-10T15:18:06;6.40;;;2.80;;
16662;SDS011;8445;51.270;9.434;2023-05-10T15:20:33;5.65;;;3.10;;
16662;SDS011;8445;51.270;9.434;2023-05-10T15:22:58;6.13;;;2.50;;
16662;SDS011;8445;51.270;9.434;2023-05-10T15:25:24;4.05;;;2.70;;
16662;SDS011;8445;51.270;9.434;2023-05-10T15:27:50;3.10;;;2.80;;
16662;SDS011;8445;51.270;9.434;2023-05-10T15:30:15;3.38;;;2.65;;
16662;SDS011;8445;51.270;9.434;2023-05-10T15:32:41;4.38;;;2.50;;